Time;durP1;ratioP1;P1;durP2;ratioP2;P2;SDS_P1;SDS_P2;PMS_P1;PMS_P2;Temp;Humidity;BMP_temperature;BMP_pressure;BME280_temperature;BME280_humidity;BME280_pressure;Samples;Min_cycle;Max_cycle;Signal;HPM_P1;HPM_P2
2022/11/30 00:00:02;;;;;;;33.92;17.73;;;6.80;99.90;;;;;;5093901;28;20044;-79
2022/11/30 00:02:29;;;;;;;31.88;16.90;;;7.40;99.90;;;;;;5095485;28;20384;-79
2022/11/30 00:04:54;;;;;;;31.90;17.40;;;6.80;99.90;;;;;;5095256;28;20096;-79
2022/11/30 00:07:20;;;;;;;31.52;16.40;;;6.80;99.90;;;;;;5094959;28;20546;-79
2022/11/30 00:09:45;;;;;;;31.05;16.98;;;6.80;99.90;;;;;;5095141;28;20043;-79
2022/11/30 00:12:11;;;;;;;32.35;16.92;;;6.80;99.90;;;;;;5095144;28;20066;-79
2022/11/30 00:14:37;;;;;;;39.38;17.50;;;6.80;99.90;;;;;;5094736;28;20042;-79
2022/11/30 00:17:02;;;;;;;35.10;17.45;;;6.80;99.90;;;;;;5095273;28;20044;-79
2022/11/30 00:19:28;;;;;;;30.00;16.85;;;6.70;99.90;;;;;;5094971;28;20052;-79
2022/11/30 00:21:53;;;;;;;29.75;16.15;;;6.70;99.90;;;;;;5094737;28;20036;-79
2022/11/30 00:24:19;;;;;;;32.67;17.90;;;6.70;99.90;;;;;;5094773;28;20097;-79
2022/11/30 00:26:45;;;;;;;33.33;17.73;;;6.70;99.90;;;;;;5094849;28;20488;-79
2022/11/30 00:29:10;;;;;;;34.72;17.75;;;7.10;99.90;;;;;;5094634;28;20455;-79
2022/11/30 00:31:36;;;;;;;34.72;18.65;;;6.70;99.90;;;;;;5095092;28;20040;-79
2022/11/30 00:34:01;;;;;;;33.70;18.58;;;6.70;99.90;;;;;;5094698;28;20043;-79
2022/11/30 00:36:27;;;;;;;38.75;18.88;;;6.70;99.90;;;;;;5094612;28;20075;-79
2022/11/30 00:38:53;;;;;;;38.08;18.45;;;6.70;99.90;;;;;;5094608;28;20069;-79
2022/11/30 00:41:19;;;;;;;36.25;19.63;;;6.70;99.90;;;;;;5094300;28;20035;-79
2022/11/30 00:43:45;;;;;;;36.90;18.90;;;6.70;99.90;;;;;;5094545;28;20036;-79
2022/11/30 00:46:11;;;;;;;34.65;18.95;;;6.70;99.90;;;;;;5094548;28;20405;-79
2022/11/30 00:48:37;;;;;;;38.30;18.13;;;6.70;99.90;;;;;;5093667;28;20048;-79
2022/11/30 00:51:03;;;;;;;40.00;19.55;;;6.40;99.90;;;;;;5094467;28;20403;-79
2022/11/30 00:53:29;;;;;;;41.13;18.87;;;6.70;99.90;;;;;;5094398;28;20101;-79
2022/11/30 00:55:55;;;;;;;38.80;17.88;;;6.60;99.90;;;;;;5094298;28;20048;-79
2022/11/30 00:58:21;;;;;;;35.42;18.15;;;6.70;99.90;;;;;;5094435;28;20079;-79
2022/11/30 01:00:47;;;;;;;40.65;19.27;;;6.70;99.90;;;;;;5094148;28;20668;-79
2022/11/30 01:03:12;;;;;;;35.33;18.92;;;6.70;99.90;;;;;;5094292;28;20094;-79
2022/11/30 01:05:39;;;;;;;40.85;20.27;;;6.70;99.90;;;;;;5094395;28;20048;-79
2022/11/30 01:08:07;;;;;;;35.90;18.92;;;6.70;99.90;;;;;;5094150;28;20537;-79
2022/11/30 01:10:33;;;;;;;42.53;20.50;;;6.30;99.90;;;;;;5094134;28;20396;-79
2022/11/30 01:12:59;;;;;;;38.38;20.08;;;6.70;99.90;;;;;;5093856;28;20550;-79
2022/11/30 01:15:24;;;;;;;37.70;19.67;;;6.70;99.90;;;;;;5093998;28;20044;-79
2022/11/30 01:17:50;;;;;;;43.45;20.10;;;6.70;99.90;;;;;;5094249;28;20055;-79
2022/11/30 01:20:16;;;;;;;44.58;22.33;;;6.60;99.90;;;;;;5093189;28;20392;-79
2022/11/30 01:22:41;;;;;;;49.95;23.42;;;6.70;99.90;;;;;;5093993;28;20373;-79
2022/11/30 01:25:07;;;;;;;40.17;21.42;;;6.70;99.90;;;;;;5093493;28;20063;-79
2022/11/30 01:27:33;;;;;;;46.53;20.38;;;6.70;99.90;;;;;;5076368;28;20400;-79
2022/11/30 01:29:58;;;;;;;49.03;22.35;;;6.60;99.90;;;;;;5093872;28;20040;-79
2022/11/30 01:32:24;;;;;;;48.40;21.73;;;6.70;99.90;;;;;;5093873;28;20156;-79
2022/11/30 01:34:49;;;;;;;42.95;21.38;;;6.70;99.90;;;;;;5093749;28;20040;-80
2022/11/30 01:37:15;;;;;;;53.70;23.20;;;6.70;99.90;;;;;;5093834;28;20075;-79
2022/11/30 01:39:41;;;;;;;49.63;22.55;;;6.70;99.90;;;;;;5093630;28;20533;-79
2022/11/30 01:42:14;;;;;;;48.35;22.08;;;6.70;99.90;;;;;;5094187;28;20127;-79
2022/11/30 01:44:51;;;;;;;52.28;23.40;;;6.60;99.90;;;;;;5093690;28;20051;-79
2022/11/30 01:47:21;;;;;;;48.88;22.83;;;6.60;99.90;;;;;;5093747;28;20426;-79
2022/11/30 01:49:52;;;;;;;51.20;23.23;;;6.50;99.90;;;;;;5093788;28;20139;-79
2022/11/30 01:52:26;;;;;;;51.22;21.92;;;6.60;99.90;;;;;;5093706;28;20044;-79
2022/11/30 01:55:14;;;;;;;48.45;22.92;;;6.50;99.90;;;;;;5093632;28;20079;-79
2022/11/30 01:57:43;;;;;;;;;;;6.50;99.90;;;;;;5094094;28;20040;-79
2022/11/30 02:00:12;;;;;;;45.72;21.30;;;6.50;99.90;;;;;;5094966;28;19920;-79
2022/11/30 02:02:46;;;;;;;46.85;22.40;;;6.50;99.90;;;;;;5097840;28;20040;-79
2022/11/30 02:05:13;;;;;;;50.40;23.05;;;6.50;99.90;;;;;;5097566;28;20076;-79
2022/11/30 02:07:40;;;;;;;42.17;21.38;;;6.50;99.90;;;;;;5097570;28;20090;-79
2022/11/30 02:10:06;;;;;;;46.00;22.50;;;6.70;99.90;;;;;;5097533;28;20051;-79
2022/11/30 02:12:56;;;;;;;48.20;21.65;;;6.50;99.90;;;;;;5097588;28;20071;-79
2022/11/30 02:15:30;;;;;;;46.42;22.42;;;6.50;99.90;;;;;;5097487;28;20043;-79
2022/11/30 02:18:21;;;;;;;46.17;22.05;;;6.10;99.90;;;;;;5096411;28;20475;-79
2022/11/30 02:21:02;;;;;;;48.13;23.48;;;6.50;99.90;;;;;;5097539;28;20048;-79
2022/11/30 02:23:46;;;;;;;43.70;21.13;;;6.50;99.90;;;;;;5097609;28;20044;-79
2022/11/30 02:26:12;;;;;;;39.83;21.77;;;6.50;99.90;;;;;;5097948;28;20484;-79
2022/11/30 02:29:15;;;;;;;41.63;20.67;;;6.40;99.90;;;;;;5097416;28;20066;-79
2022/11/30 02:31:50;;;;;;;37.22;19.55;;;6.40;99.90;;;;;;5055686;28;20564;-79
2022/11/30 02:34:18;;;;;;;40.28;20.45;;;6.40;99.90;;;;;;5096040;28;20040;-79
2022/11/30 02:36:45;;;;;;;40.78;19.90;;;6.40;99.90;;;;;;5097111;28;20055;-79
2022/11/30 02:39:10;;;;;;;;;;;6.50;99.90;;;;;;5097768;28;20048;-79
2022/11/30 02:41:40;;;;;;;37.35;20.08;;;6.40;99.90;;;;;;5096915;28;20150;-79
2022/11/30 02:44:08;;;;;;;38.20;20.02;;;6.40;99.90;;;;;;5095843;28;20048;-79
2022/11/30 02:46:58;;;;;;;38.72;19.02;;;6.40;99.90;;;;;;5096813;28;20040;-79
2022/11/30 02:49:41;;;;;;;37.65;19.92;;;6.40;99.90;;;;;;5097092;28;20040;-79
2022/11/30 02:52:09;;;;;;;39.50;18.83;;;6.40;99.90;;;;;;5096907;28;20127;-79
2022/11/30 02:54:34;;;;;;;33.10;18.13;;;6.30;99.90;;;;;;5096524;28;20061;-79
2022/11/30 02:57:00;;;;;;;34.25;17.92;;;6.40;99.90;;;;;;5096568;28;20073;-79
2022/11/30 02:59:26;;;;;;;32.85;17.63;;;6.30;99.90;;;;;;5096621;28;20472;-79
2022/11/30 03:01:52;;;;;;;33.03;18.30;;;6.30;99.90;;;;;;5096955;28;20044;-79
2022/11/30 03:04:17;;;;;;;34.13;18.52;;;6.30;99.90;;;;;;5096475;28;20044;-79
2022/11/30 03:06:43;;;;;;;34.05;18.27;;;6.30;99.90;;;;;;5096462;28;20043;-79
2022/11/30 03:09:08;;;;;;;34.10;17.63;;;6.30;99.90;;;;;;5096477;28;20047;-79
2022/11/30 03:11:34;;;;;;;31.52;17.00;;;6.30;99.90;;;;;;5095452;28;20084;-79
2022/11/30 03:14:00;;;;;;;35.35;19.52;;;6.30;99.90;;;;;;5096297;28;20040;-80
2022/11/30 03:16:25;;;;;;;33.35;18.75;;;6.30;99.90;;;;;;5096218;28;20123;-79
2022/11/30 03:18:51;;;;;;;35.97;19.17;;;6.30;99.90;;;;;;5096212;28;20040;-79
2022/11/30 03:21:16;;;;;;;36.58;20.00;;;6.30;99.90;;;;;;5096133;28;20483;-79
2022/11/30 03:23:42;;;;;;;36.22;19.63;;;6.90;99.90;;;;;;5096168;28;20419;-79
2022/11/30 03:26:08;;;;;;;34.25;18.50;;;6.30;99.90;;;;;;5095970;28;20063;-79
2022/11/30 03:28:35;;;;;;;33.70;17.73;;;6.30;99.90;;;;;;5095992;28;20131;-79
2022/11/30 03:31:01;;;;;;;35.20;19.52;;;6.30;99.90;;;;;;5095934;28;20070;-79
2022/11/30 03:33:26;;;;;;;39.90;20.02;;;5.80;99.90;;;;;;5095949;28;20127;-79
2022/11/30 03:36:00;;;;;;;36.85;18.85;;;6.00;99.90;;;;;;5095881;28;20044;-79
2022/11/30 03:38:26;;;;;;;32.90;18.25;;;5.90;99.90;;;;;;5095858;28;20134;-79
2022/11/30 03:40:59;;;;;;;36.80;19.77;;;6.30;99.90;;;;;;5095465;28;20083;-79
2022/11/30 03:43:24;;;;;;;37.90;18.80;;;6.30;99.90;;;;;;5095830;28;20094;-79
2022/11/30 03:45:50;;;;;;;33.65;18.75;;;6.30;99.90;;;;;;5095999;28;20071;-79
2022/11/30 03:48:15;;;;;;;38.38;19.60;;;6.30;99.90;;;;;;5095467;28;20089;-79
2022/11/30 03:50:48;;;;;;;36.08;19.00;;;6.30;99.90;;;;;;5095602;28;20145;-79
2022/11/30 03:53:14;;;;;;;33.45;17.85;;;6.30;99.90;;;;;;5095554;28;20360;-79
2022/11/30 03:55:39;;;;;;;34.15;19.10;;;6.30;99.90;;;;;;5095425;28;20044;-79
2022/11/30 03:58:05;;;;;;;34.90;19.38;;;6.30;99.90;;;;;;5095899;28;20097;-79
2022/11/30 04:00:30;;;;;;;34.45;18.25;;;6.30;99.90;;;;;;5095354;28;20080;-79
2022/11/30 04:02:56;;;;;;;37.10;19.15;;;6.30;99.90;;;;;;5095337;28;20044;-79
2022/11/30 04:05:22;;;;;;;33.88;19.05;;;6.30;99.90;;;;;;5095335;28;20097;-79
2022/11/30 04:07:47;;;;;;;40.40;19.90;;;6.30;99.90;;;;;;5095224;28;20476;-79
2022/11/30 04:10:13;;;;;;;36.38;19.50;;;6.30;99.90;;;;;;5095263;28;20062;-79
2022/11/30 04:12:38;;;;;;;32.65;18.80;;;6.30;99.90;;;;;;5095245;28;20051;-79
2022/11/30 04:15:04;;;;;;;34.45;19.00;;;6.30;99.90;;;;;;5095144;28;20051;-79
2022/11/30 04:17:30;;;;;;;39.05;19.67;;;6.30;99.90;;;;;;5094263;28;20132;-79
2022/11/30 04:19:55;;;;;;;36.42;18.25;;;6.20;99.90;;;;;;5094992;28;20398;-79
2022/11/30 04:22:21;;;;;;;39.65;21.23;;;6.30;99.90;;;;;;5094825;28;20046;-79
2022/11/30 04:24:46;;;;;;;35.83;19.17;;;6.30;99.90;;;;;;5094525;28;20063;-79
2022/11/30 04:27:12;;;;;;;36.38;18.20;;;6.20;99.90;;;;;;5095497;28;20087;-79
2022/11/30 04:29:37;;;;;;;37.08;18.85;;;6.20;99.90;;;;;;5094869;28;20119;-79
2022/11/30 04:32:03;;;;;;;37.15;18.83;;;6.20;99.90;;;;;;5094731;28;20043;-79
2022/11/30 04:34:30;;;;;;;40.33;19.08;;;6.20;99.90;;;;;;5094999;28;20079;-79
2022/11/30 04:36:56;;;;;;;36.78;19.77;;;6.30;99.90;;;;;;5094742;28;20087;-79
2022/11/30 04:39:21;;;;;;;44.17;21.20;;;6.30;99.90;;;;;;5093469;28;20528;-79
2022/11/30 04:41:47;;;;;;;42.65;20.38;;;6.20;99.90;;;;;;5095109;28;20044;-79
2022/11/30 04:44:12;;;;;;;43.30;20.17;;;6.20;99.90;;;;;;5094624;28;20048;-79
2022/11/30 04:46:38;;;;;;;43.35;20.77;;;6.20;99.90;;;;;;5094606;28;20043;-80
2022/11/30 04:49:04;;;;;;;41.92;20.85;;;6.20;99.90;;;;;;5094683;28;20123;-79
2022/11/30 04:51:29;;;;;;;39.13;20.25;;;6.20;99.90;;;;;;5094492;28;20067;-79
2022/11/30 04:53:55;;;;;;;37.13;19.40;;;6.20;99.90;;;;;;5094309;28;20129;-79
2022/11/30 04:56:20;;;;;;;35.85;19.10;;;6.20;99.90;;;;;;5094398;28;20365;-79
2022/11/30 04:58:46;;;;;;;35.08;19.38;;;7.00;99.90;;;;;;5093119;28;20051;-79
2022/11/30 05:01:11;;;;;;;33.67;18.15;;;6.20;99.90;;;;;;5094220;28;20067;-79
2022/11/30 05:03:37;;;;;;;37.90;18.17;;;6.20;99.90;;;;;;5094229;28;20046;-79
2022/11/30 05:06:03;;;;;;;31.10;17.98;;;6.20;99.90;;;;;;5093980;28;20097;-79
2022/11/30 05:08:29;;;;;;;37.25;19.30;;;6.20;99.90;;;;;;5094088;28;20404;-79
2022/11/30 05:10:55;;;;;;;33.50;18.10;;;6.10;99.90;;;;;;5094122;28;20453;-79
2022/11/30 05:13:24;;;;;;;31.95;18.88;;;6.20;99.90;;;;;;5094147;28;20047;-79
2022/11/30 05:15:51;;;;;;;32.38;18.05;;;6.20;99.90;;;;;;5094039;28;20040;-79
2022/11/30 05:18:16;;;;;;;34.15;18.30;;;6.20;99.90;;;;;;5093828;28;20052;-79
2022/11/30 05:20:47;;;;;;;35.60;17.95;;;6.20;99.90;;;;;;5093974;28;20047;-79
2022/11/30 05:23:12;;;;;;;30.38;17.60;;;6.20;99.90;;;;;;5093968;28;20051;-79
2022/11/30 05:25:38;;;;;;;30.52;17.35;;;6.20;99.90;;;;;;5093779;28;20048;-79
2022/11/30 05:28:04;;;;;;;28.15;16.85;;;6.20;99.90;;;;;;5093945;28;20105;-79
2022/11/30 05:30:29;;;;;;;33.47;18.90;;;6.20;99.90;;;;;;5094167;28;20488;-79
2022/11/30 05:32:55;;;;;;;29.67;16.63;;;6.20;99.90;;;;;;5093818;28;20047;-79
2022/11/30 05:35:20;;;;;;;28.85;17.63;;;6.20;99.90;;;;;;5093255;28;20039;-79
2022/11/30 05:37:46;;;;;;;29.25;17.17;;;6.20;99.90;;;;;;5093750;28;20222;-79
2022/11/30 05:40:12;;;;;;;32.13;17.60;;;6.10;99.90;;;;;;5093724;28;20044;-79
2022/11/30 05:42:37;;;;;;;29.42;16.75;;;6.10;99.90;;;;;;5093697;28;20377;-79
2022/11/30 05:45:03;;;;;;;29.77;15.90;;;6.10;99.90;;;;;;5093727;28;20093;-79
2022/11/30 05:47:29;;;;;;;29.15;17.15;;;6.10;99.90;;;;;;5093546;28;20044;-79
2022/11/30 05:49:54;;;;;;;33.88;16.73;;;6.10;99.90;;;;;;5093644;28;20058;-79
2022/11/30 05:52:20;;;;;;;30.30;16.38;;;6.00;99.90;;;;;;5093780;28;20044;-79
2022/11/30 05:54:45;;;;;;;26.02;15.65;;;6.00;99.90;;;;;;5093501;28;20510;-79
2022/11/30 05:57:11;;;;;;;28.48;15.38;;;6.00;99.90;;;;;;5093525;28;20472;-79
2022/11/30 05:59:37;;;;;;;28.98;15.93;;;6.00;99.90;;;;;;5093520;28;20162;-79
2022/11/30 06:02:02;;;;;;;30.70;17.08;;;6.00;99.90;;;;;;5093516;28;20048;-79
2022/11/30 06:04:28;;;;;;;29.52;16.55;;;5.90;99.90;;;;;;5092148;28;20074;-79
2022/11/30 06:06:56;;;;;;;27.02;15.63;;;5.90;99.90;;;;;;5093521;28;20043;-79
2022/11/30 06:09:22;;;;;;;34.63;17.17;;;5.90;99.90;;;;;;5093207;28;20047;-79
2022/11/30 06:11:48;;;;;;;27.88;17.27;;;5.90;99.90;;;;;;5093432;28;20040;-79
2022/11/30 06:14:13;;;;;;;25.65;16.58;;;5.90;99.90;;;;;;5093451;28;20051;-79
2022/11/30 06:16:39;;;;;;;27.67;15.13;;;5.90;99.90;;;;;;5093327;28;20040;-79
2022/11/30 06:19:04;;;;;;;31.00;16.42;;;5.60;99.90;;;;;;5093423;28;20106;-79
2022/11/30 06:21:30;;;;;;;28.33;16.40;;;5.90;99.90;;;;;;5093397;28;20483;-79
2022/11/30 06:23:56;;;;;;;32.67;16.98;;;5.90;99.90;;;;;;5093348;28;20036;-79
2022/11/30 06:26:22;;;;;;;26.63;16.00;;;6.00;99.90;;;;;;5093196;28;20385;-79
2022/11/30 06:28:47;;;;;;;28.23;17.38;;;6.00;99.90;;;;;;5093102;28;20361;-79
2022/11/30 06:31:13;;;;;;;28.75;15.95;;;6.00;99.90;;;;;;5093053;28;20047;-79
2022/11/30 06:33:38;;;;;;;23.17;13.48;;;6.00;99.90;;;;;;5093322;28;20495;-79
2022/11/30 06:36:04;;;;;;;25.70;15.50;;;6.30;99.90;;;;;;5093020;28;20101;-79
2022/11/30 06:38:30;;;;;;;26.35;15.13;;;6.00;99.90;;;;;;5094023;28;20047;-79
2022/11/30 06:41:03;;;;;;;25.35;15.00;;;5.50;99.90;;;;;;5093484;28;20044;-79
2022/11/30 06:43:35;;;;;;;27.23;15.82;;;6.00;99.90;;;;;;5092433;28;20044;-79
2022/11/30 06:46:02;;;;;;;26.63;15.02;;;6.00;99.90;;;;;;5093514;28;20075;-74
2022/11/30 06:48:28;;;;;;;30.35;15.07;;;5.90;99.90;;;;;;5096416;28;20075;-78
2022/11/30 06:50:54;;;;;;;23.30;13.70;;;5.90;99.90;;;;;;5096727;28;20476;-78
2022/11/30 06:53:19;;;;;;;26.60;14.98;;;5.90;99.90;;;;;;5096712;28;20499;-79
2022/11/30 06:55:45;;;;;;;27.58;15.00;;;5.90;99.90;;;;;;5096598;28;20048;-80
2022/11/30 06:58:11;;;;;;;24.13;13.98;;;5.90;99.90;;;;;;5096693;28;20051;-78
2022/11/30 07:00:37;;;;;;;26.47;14.13;;;5.90;99.90;;;;;;5096645;28;20407;-78
2022/11/30 07:03:04;;;;;;;23.13;12.80;;;5.90;99.90;;;;;;5096576;28;20330;-78
2022/11/30 07:05:38;;;;;;;25.35;14.13;;;5.60;99.90;;;;;;5096304;28;20127;-77
2022/11/30 07:08:04;;;;;;;23.48;13.27;;;5.90;99.90;;;;;;5096645;28;20503;-78
2022/11/30 07:10:29;;;;;;;23.45;13.85;;;5.90;99.90;;;;;;5097142;28;20048;-76
2022/11/30 07:12:55;;;;;;;28.38;13.73;;;6.80;99.90;;;;;;5096689;28;20044;-76
2022/11/30 07:15:20;;;;;;;22.20;12.63;;;5.90;99.90;;;;;;5096298;28;20535;-76
2022/11/30 07:17:46;;;;;;;22.10;13.02;;;5.80;99.90;;;;;;5096460;28;20127;-76
2022/11/30 07:20:12;;;;;;;26.23;13.65;;;5.80;99.90;;;;;;5096380;28;20513;-77
2022/11/30 07:22:37;;;;;;;21.17;12.65;;;5.80;99.90;;;;;;5096844;28;20130;-78
2022/11/30 07:27:47;;;;;;;24.55;13.70;;;5.80;99.90;;;;;;5096338;28;20048;-79
2022/11/30 07:30:13;;;;;;;26.25;13.93;;;5.80;99.90;;;;;;5095885;28;20561;-79
2022/11/30 07:32:38;;;;;;;26.55;13.85;;;5.80;99.90;;;;;;5094835;28;20400;-78
2022/11/30 07:35:04;;;;;;;28.40;14.77;;;5.80;99.90;;;;;;5093440;28;20044;-78
2022/11/30 07:37:29;;;;;;;29.58;14.40;;;5.80;99.90;;;;;;5095522;28;20514;-78
2022/11/30 07:39:55;;;;;;;26.73;14.77;;;5.80;99.90;;;;;;5094296;28;20131;-77
2022/11/30 07:42:21;;;;;;;26.58;14.82;;;5.80;99.90;;;;;;5094727;28;20044;-77
2022/11/30 07:44:48;;;;;;;23.83;13.70;;;5.70;99.90;;;;;;5095653;28;20052;-76
2022/11/30 07:47:14;;;;;;;23.83;14.70;;;5.60;99.90;;;;;;5095752;28;20428;-78
2022/11/30 07:49:40;;;;;;;23.35;13.43;;;5.80;99.90;;;;;;5095390;28;20059;-79
2022/11/30 07:52:05;;;;;;;24.67;13.30;;;5.80;99.90;;;;;;5095817;28;20040;-79
2022/11/30 07:54:31;;;;;;;25.08;14.20;;;5.80;99.90;;;;;;5095519;28;20082;-77
2022/11/30 07:56:57;;;;;;;28.67;15.50;;;5.80;99.90;;;;;;5095499;28;20483;-79
2022/11/30 07:59:22;;;;;;;28.42;13.77;;;6.50;99.90;;;;;;5077133;28;20519;-78
2022/11/30 08:01:48;;;;;;;24.95;14.90;;;5.80;99.90;;;;;;5095435;28;20045;-80
2022/11/30 08:04:14;;;;;;;24.73;14.00;;;6.10;99.90;;;;;;5095288;28;20048;-78
2022/11/30 08:06:39;;;;;;;27.15;15.13;;;5.50;99.90;;;;;;5095816;28;20051;-80
2022/11/30 08:09:06;;;;;;;25.02;13.73;;;5.80;99.90;;;;;;5095661;28;20040;-78
2022/11/30 08:11:33;;;;;;;24.43;13.93;;;5.80;99.90;;;;;;5095525;28;20052;-79
2022/11/30 08:14:01;;;;;;;23.35;14.95;;;5.80;99.90;;;;;;5095479;28;20135;-78
2022/11/30 08:16:27;;;;;;;;;;;5.80;99.90;;;;;;5095609;28;20040;-80
2022/11/30 08:18:57;;;;;;;22.60;13.38;;;6.70;99.90;;;;;;5095337;28;19920;-79
2022/11/30 08:21:23;;;;;;;22.30;14.02;;;5.80;99.90;;;;;;5095654;28;20466;-78
2022/11/30 08:23:55;;;;;;;23.85;13.77;;;5.80;99.90;;;;;;5095575;28;20083;-79
2022/11/30 08:26:23;;;;;;;25.20;13.65;;;5.90;99.90;;;;;;5094809;28;20055;-79
2022/11/30 08:28:49;;;;;;;21.40;12.57;;;5.80;99.90;;;;;;5094914;28;20066;-78
2022/11/30 08:31:28;;;;;;;21.48;12.98;;;5.80;99.90;;;;;;5094850;28;20044;-79
2022/11/30 08:33:56;;;;;;;21.80;13.30;;;5.90;99.90;;;;;;5094879;28;20177;-77
2022/11/30 08:36:23;;;;;;;20.70;12.95;;;5.80;99.90;;;;;;5094657;28;20104;-78
2022/11/30 08:38:48;;;;;;;;;;;5.80;99.90;;;;;;5095201;28;20079;-78
2022/11/30 08:41:18;;;;;;;19.05;12.50;;;5.80;99.90;;;;;;5094753;28;20310;-78
2022/11/30 08:43:44;;;;;;;22.08;13.48;;;5.80;99.90;;;;;;5094695;28;20048;-78
2022/11/30 08:46:12;;;;;;;17.38;12.07;;;5.80;99.90;;;;;;5095040;28;20044;-78
2022/11/30 08:48:38;;;;;;;19.48;12.85;;;5.80;99.90;;;;;;5093156;28;20071;-78
2022/11/30 08:51:06;;;;;;;19.40;12.82;;;5.80;99.90;;;;;;5094828;28;20132;-79
2022/11/30 08:53:32;;;;;;;22.90;13.27;;;5.80;99.90;;;;;;5094670;28;20044;-78
2022/11/30 08:56:02;;;;;;;23.15;13.70;;;6.60;99.90;;;;;;5094311;28;20048;-78
2022/11/30 08:58:30;;;;;;;22.73;13.93;;;5.80;99.90;;;;;;5092566;28;20047;-78
2022/11/30 09:01:20;;;;;;;25.02;14.05;;;5.80;99.90;;;;;;5093796;28;20048;-77
2022/11/30 09:03:47;;;;;;;21.15;12.27;;;5.80;99.90;;;;;;5094321;28;20066;-79
2022/11/30 09:06:14;;;;;;;;;;;5.80;99.90;;;;;;5094117;28;20480;-79
2022/11/30 09:08:41;;;;;;;23.08;14.02;;;5.80;99.90;;;;;;5093935;28;20019;-78
2022/11/30 09:11:08;;;;;;;;;;;5.80;99.90;;;;;;5093795;28;20051;-78
2022/11/30 09:13:33;;;;;;;23.98;13.55;;;5.80;99.90;;;;;;5093705;28;20014;-78
2022/11/30 09:15:59;;;;;;;23.02;12.65;;;5.80;99.90;;;;;;5093863;28;20127;-78
2022/11/30 09:18:24;;;;;;;24.65;13.88;;;5.50;99.90;;;;;;5094015;28;20051;-79
2022/11/30 09:20:50;;;;;;;23.73;13.30;;;5.90;99.90;;;;;;5093799;28;20399;-78
2022/11/30 09:23:15;;;;;;;23.77;13.10;;;5.90;99.90;;;;;;5093557;28;20522;-77
2022/11/30 09:25:41;;;;;;;21.52;13.70;;;5.90;99.90;;;;;;5075275;28;20052;-79
2022/11/30 09:28:07;;;;;;;23.08;13.27;;;5.90;99.90;;;;;;5093670;28;20050;-78
2022/11/30 09:30:32;;;;;;;24.98;13.18;;;6.00;99.90;;;;;;5093730;28;20503;-77
2022/11/30 09:33:01;;;;;;;20.73;12.32;;;6.30;99.90;;;;;;5093620;28;20044;-77
2022/11/30 09:35:26;;;;;;;21.38;12.90;;;6.00;99.90;;;;;;5093586;28;20537;-78
2022/11/30 09:37:52;;;;;;;16.27;11.70;;;6.00;99.90;;;;;;5093404;28;20047;-78
2022/11/30 09:40:22;;;;;;;20.65;12.73;;;6.60;99.90;;;;;;5093551;28;20527;-78
2022/11/30 09:42:56;;;;;;;19.38;12.07;;;6.10;99.90;;;;;;5093594;28;20047;-77
2022/11/30 09:45:29;;;;;;;17.30;12.00;;;6.00;99.90;;;;;;5093602;28;20476;-78
2022/11/30 09:48:06;;;;;;;18.10;11.30;;;6.00;99.90;;;;;;5093642;28;20127;-78
2022/11/30 09:50:38;;;;;;;17.42;11.85;;;6.00;99.90;;;;;;5093397;28;20067;-78
2022/11/30 09:53:11;;;;;;;22.85;12.10;;;6.10;99.90;;;;;;5092439;28;20369;-83
2022/11/30 09:55:40;;;;;;;17.63;11.68;;;6.10;99.90;;;;;;5093370;28;20131;-78
2022/11/30 09:58:06;;;;;;;17.92;12.00;;;6.10;99.90;;;;;;5093313;28;20040;-78
2022/11/30 10:00:33;;;;;;;18.97;10.90;;;6.00;99.90;;;;;;5093318;28;20073;-78
2022/11/30 10:03:03;;;;;;;20.42;11.95;;;6.00;99.90;;;;;;5093263;28;20441;-78
2022/11/30 10:05:47;;;;;;;20.65;12.77;;;6.00;99.90;;;;;;5093208;28;20051;-78
2022/11/30 10:08:30;;;;;;;19.60;11.40;;;6.00;99.90;;;;;;5093108;28;20044;-78
2022/11/30 10:11:26;;;;;;;18.35;11.35;;;6.00;99.90;;;;;;5093145;28;20036;-79
2022/11/30 10:14:09;;;;;;;17.55;11.93;;;6.00;99.90;;;;;;5093245;28;20088;-75
2022/11/30 10:17:03;;;;;;;17.15;11.88;;;6.10;99.90;;;;;;5092937;28;20491;-79
2022/11/30 10:19:52;;;;;;;17.63;11.77;;;6.10;99.90;;;;;;5093295;28;20177;-77
2022/11/30 10:22:31;;;;;;;15.73;11.52;;;6.10;99.90;;;;;;5096075;28;20551;-80
2022/11/30 10:25:38;;;;;;;16.40;11.05;;;6.10;99.90;;;;;;5096551;28;20047;-84
2022/11/30 10:28:32;;;;;;;16.77;11.15;;;6.20;99.90;;;;;;5096073;28;20434;-78
2022/11/30 10:31:00;;;;;;;16.33;10.75;;;6.20;99.90;;;;;;5096651;28;20495;-79
2022/11/30 10:33:33;;;;;;;17.25;11.25;;;6.20;99.90;;;;;;5097024;28;20395;-78
2022/11/30 10:36:07;;;;;;;15.05;11.10;;;6.20;99.90;;;;;;5097169;28;20051;-85
2022/11/30 10:38:38;;;;;;;17.30;10.75;;;6.40;99.90;;;;;;5080416;28;20399;-83
2022/11/30 10:41:22;;;;;;;16.90;11.23;;;6.30;99.90;;;;;;5096504;28;20051;-84
2022/11/30 10:43:55;;;;;;;21.90;12.43;;;6.30;99.90;;;;;;5097769;28;20097;-81
2022/11/30 10:46:26;;;;;;;18.88;12.85;;;6.30;99.90;;;;;;5102639;28;20048;-84
2022/11/30 10:49:03;;;;;;;21.30;13.55;;;6.30;99.90;;;;;;5079133;28;20086;-85
2022/11/30 10:51:32;;;;;;;21.57;13.73;;;6.30;99.90;;;;;;5096523;28;20059;-85
2022/11/30 10:53:59;;;;;;;22.60;13.75;;;6.60;99.90;;;;;;5095443;28;20078;-83
2022/11/30 10:56:25;;;;;;;20.77;13.35;;;6.30;99.90;;;;;;5096497;28;20044;-79
2022/11/30 10:59:10;;;;;;;20.42;13.00;;;6.20;99.90;;;;;;5096532;28;20040;-78
2022/11/30 11:01:38;;;;;;;21.83;13.38;;;6.20;99.90;;;;;;5096231;28;20625;-81
2022/11/30 11:04:10;;;;;;;19.90;12.93;;;6.20;99.90;;;;;;5096285;28;20055;-79
2022/11/30 11:06:42;;;;;;;22.65;13.82;;;6.20;99.90;;;;;;5095167;28;20154;-79
2022/11/30 11:09:49;;;;;;;22.75;13.32;;;6.10;99.90;;;;;;5096160;28;20044;-78
2022/11/30 11:12:19;;;;;;;22.98;13.57;;;6.10;99.90;;;;;;5085544;28;20055;-78
2022/11/30 11:14:45;;;;;;;25.67;14.73;;;6.10;99.90;;;;;;5099115;28;20052;-79
2022/11/30 11:17:17;;;;;;;22.00;14.55;;;6.20;99.90;;;;;;5114774;28;20403;-78
2022/11/30 11:19:44;;;;;;;22.50;13.18;;;6.20;99.90;;;;;;5096132;28;20044;-82
2022/11/30 11:22:28;;;;;;;21.58;13.38;;;6.20;99.90;;;;;;5096039;28;20051;-81
2022/11/30 11:25:06;;;;;;;24.42;13.63;;;6.20;99.90;;;;;;5095202;28;20614;-78
2022/11/30 11:27:33;;;;;;;23.17;14.27;;;6.20;99.90;;;;;;5096082;28;20093;-78
2022/11/30 11:30:11;;;;;;;23.00;13.63;;;6.20;99.90;;;;;;5095061;28;20141;-80
2022/11/30 11:32:36;;;;;;;22.23;13.90;;;6.20;99.90;;;;;;5095155;28;20051;-83
2022/11/30 11:35:03;;;;;;;20.38;13.90;;;6.20;99.90;;;;;;5094659;28;20044;-82
2022/11/30 11:37:36;;;;;;;19.77;13.50;;;6.20;99.90;;;;;;5095467;28;20052;-79
2022/11/30 11:40:14;;;;;;;23.08;13.77;;;6.20;99.90;;;;;;5095674;28;20484;-79
2022/11/30 11:42:46;;;;;;;20.92;14.38;;;6.20;99.90;;;;;;5095710;28;20054;-79
2022/11/30 11:45:31;;;;;;;24.35;15.50;;;6.30;99.90;;;;;;5095669;28;20065;-77
2022/11/30 11:48:02;;;;;;;25.15;16.20;;;6.30;99.90;;;;;;5096228;28;20144;-79
2022/11/30 11:50:36;;;;;;;25.23;15.20;;;6.30;99.90;;;;;;5095604;28;20131;-79
2022/11/30 11:53:14;;;;;;;23.08;14.52;;;6.30;99.90;;;;;;5094385;28;20047;-78
2022/11/30 11:55:43;;;;;;;22.67;14.40;;;6.30;99.90;;;;;;5095199;28;20426;-77
2022/11/30 11:58:17;;;;;;;23.83;14.23;;;6.40;99.90;;;;;;5095428;28;20090;-79
2022/11/30 12:00:44;;;;;;;23.00;13.90;;;6.40;99.90;;;;;;5077545;28;20131;-82
2022/11/30 12:03:37;;;;;;;30.08;16.08;;;6.40;99.90;;;;;;5095354;28;20530;-79
2022/11/30 12:06:09;;;;;;;33.33;17.20;;;6.40;99.90;;;;;;5093838;28;20043;-79
2022/11/30 12:08:40;;;;;;;30.83;16.35;;;6.40;99.90;;;;;;5094368;28;20499;-78
2022/11/30 12:11:15;;;;;;;37.70;19.25;;;6.90;99.90;;;;;;5094987;28;20044;-78
2022/11/30 12:13:43;;;;;;;41.10;19.90;;;6.30;99.90;;;;;;5094899;28;20504;-78
2022/11/30 12:16:36;;;;;;;37.50;18.92;;;6.20;99.90;;;;;;5094854;28;20042;-79
2022/11/30 12:19:25;;;;;;;43.47;21.77;;;6.20;99.90;;;;;;5094792;28;20173;-78
2022/11/30 12:22:09;;;;;;;40.65;21.17;;;6.20;99.90;;;;;;5094677;28;20549;-78
2022/11/30 12:24:55;;;;;;;38.60;19.48;;;6.20;99.90;;;;;;5095037;28;20398;-79
2022/11/30 12:27:35;;;;;;;39.92;20.98;;;6.20;99.90;;;;;;5094837;28;20048;-78
2022/11/30 12:30:17;;;;;;;40.85;21.10;;;5.90;99.90;;;;;;5094660;28;20609;-78
2022/11/30 12:33:05;;;;;;;48.03;23.05;;;6.20;99.90;;;;;;5094479;28;20476;-79
2022/11/30 12:35:42;;;;;;;45.47;19.88;;;6.10;99.90;;;;;;5094564;28;20056;-79
2022/11/30 12:38:38;;;;;;;45.15;21.40;;;6.20;99.90;;;;;;5094429;28;20056;-78
2022/11/30 12:41:09;;;;;;;40.42;20.75;;;6.20;99.90;;;;;;5094629;28;20125;-79
2022/11/30 12:43:47;;;;;;;53.47;22.58;;;6.20;99.90;;;;;;5094179;28;20048;-78
2022/11/30 12:46:32;;;;;;;46.65;21.58;;;6.20;99.90;;;;;;5093910;28;20577;-78
2022/11/30 12:49:16;;;;;;;48.58;23.88;;;6.20;99.90;;;;;;5093358;28;20128;-78
2022/11/30 12:51:56;;;;;;;50.40;22.70;;;6.20;99.90;;;;;;5094177;28;20055;-78